• Join FlightAware (Why Join?)
  • Login
  • US Flag 
03:12PM EDT


 

Airport Tracker/Info


-or-


 

Live Flight TrackerFlight Track Log ✈ UAL252 ✈ 12-Jun-2013 ✈ KEWR - KMCO

Flight Track Log - Related Links

Times and Time Zones

All times are in EDT time to prevent confusion due to time zone crossing. See the UAL252 flight status page for this flight to view local times or setup timezone preferences in your user account.

Time Position Orientation Groundspeed Altitude Reporting Facility
EDT Latitude Longitude Course Direction KTS MPH feet Rate Location/Type
09:23PM 40.7167 -74.1500 207° Southwest 162 186 1,600  Level New York TRACON
09:24PM 40.7333 -74.1833 303° West 239 275 3,700 2,040 Climbing New York TRACON
09:25PM 40.3465 -74.1706 161° South  Level FlightAware Approximate
09:25PM 40.6667 -74.2167 201° Southwest 275 316 5,900  Level New York TRACON
09:26PM 40.2274 -74.1742 194° South  Level FlightAware Approximate
09:26PM 40.5833 -74.2500 197° South 282 325 5,900  Level New York TRACON
09:27PM 40.1065 -74.2051 201° Southwest  Level FlightAware Approximate
09:27PM 40.5167 -74.2667 191° South 302 348 6,000  Level New York TRACON
09:28PM 39.9918 -74.2555 207° Southwest  Level FlightAware Approximate
09:29PM 40.3150 -74.1653 159° South 314 361 7,700  Level New York Center
09:30PM 40.2331 -74.1858 191° South 292 336 10,600 2,400 Climbing New York Center
09:31PM 40.1383 -74.2164 194° South 327 376 12,500 2,160 Climbing New York Center
09:32PM 40.0589 -74.2939 217° Southwest 351 404 15,000 2,400 Climbing New York Center
09:34PM 39.9269 -74.4578 224° Southwest 364 419 19,400 2,280 Climbing Washington Center
09:35PM 39.8444 -74.5483 220° Southwest 378 435 21,400 1,980 Climbing Washington Center
09:36PM 39.7578 -74.6414 220° Southwest 391 450 23,400 1,620 Climbing Washington Center
09:37PM 39.6792 -74.7181 217° Southwest 404 465 24,700 1,260 Climbing Washington Center
09:38PM 39.5861 -74.8161 219° Southwest 416 479 25,900 1,380 Climbing Washington Center
09:39PM 39.4906 -74.9058 216° Southwest 422 486 27,600 1,440 Climbing Washington Center
09:40PM 39.3806 -74.9822 208° Southwest 434 499 28,800 1,140 Climbing Washington Center
09:41PM 39.2706 -75.0581 208° Southwest 447 514 29,900 960 Climbing Washington Center
09:42PM 39.1522 -75.1367 207° Southwest 463 533 30,800 960 Climbing Washington Center
09:43PM 39.0336 -75.2175 208° Southwest 478 550 31,900 1,140 Climbing Washington Center
09:44PM 38.9150 -75.2981 208° Southwest 478 550 33,100 1,440 Climbing Washington Center
09:45PM 38.7964 -75.3786 208° Southwest 478 550 34,800 1,320 Climbing Washington Center
09:46PM 38.6817 -75.4561 208° Southwest 478 550 35,800 840 Climbing Washington Center
09:47PM 38.5650 -75.5333 207° Southwest 478 550 36,600 780 Climbing Washington Center
09:48PM 38.4483 -75.6075 206° Southwest 473 544 37,400 660 Climbing Washington Center
09:49PM 38.3317 -75.6869 208° Southwest 473 544 38,000 300 Climbing Washington Center
09:50PM 38.2125 -75.7608 206° Southwest 468 539 38,000  Level Washington Center
09:51PM 38.0978 -75.8372 208° Southwest 468 539 38,000  Level Washington Center
09:52PM 37.9831 -75.9131 208° Southwest 468 539 38,000  Level Washington Center
09:53PM 37.8533 -75.9994 208° Southwest 475 547 38,000  Level Washington Center
09:54PM 37.7425 -76.0775 209° Southwest 475 547 38,000  Level Washington Center
09:55PM 37.6297 -76.1478 206° Southwest 470 541 38,000 -60 Level Washington Center
09:56PM 37.5167 -76.2175 206° Southwest 458 527 37,900  Descending Washington Center
09:57PM 37.4036 -76.2872 206° Southwest 453 521 38,000  Climbing Washington Center
09:58PM 37.2906 -76.3594 207° Southwest 453 521 38,000  Level Washington Center
09:59PM 37.1753 -76.4339 207° Southwest 458 527 38,000  Level Washington Center
10:00PM 37.0622 -76.5081 208° Southwest 458 527 38,100  Climbing Washington Center
10:01PM 36.9469 -76.5794 206° Southwest 458 527 38,000 -60 Descending Washington Center
10:02PM 36.8358 -76.6481 206° Southwest 458 527 38,000  Level Washington Center
10:03PM 36.7203 -76.7242 208° Southwest 458 527 38,000 -60 Level Washington Center
10:04PM 36.6089 -76.8003 209° Southwest 458 527 37,900  Descending Washington Center
10:05PM 36.4936 -76.8658 205° Southwest 458 527 38,000  Climbing Washington Center
10:06PM 36.3781 -76.9411 208° Southwest 458 527 38,000  Level Washington Center
10:07PM 36.2625 -77.0114 206° Southwest 458 527 38,000  Level Washington Center
10:08PM 36.1489 -77.0814 206° Southwest 458 527 38,000  Level Washington Center
10:09PM 36.0500 -77.1436 207° Southwest 463 533 38,000  Level Washington Center
10:10PM 35.9364 -77.2133 206° Southwest 457 526 38,000  Level Washington Center
10:11PM 35.8228 -77.2853 207° Southwest 457 526 38,000  Level Washington Center
10:12PM 35.7092 -77.3519 205° Southwest 457 526 38,000  Level Washington Center
10:13PM 35.5956 -77.4208 206° Southwest 457 526 38,000  Level Washington Center
10:14PM 35.4817 -77.4922 207° Southwest 457 526 38,000  Level Washington Center
10:15PM 35.3700 -77.5636 208° Southwest 457 526 38,000  Level Washington Center
10:16PM 35.2722 -77.6578 218° Southwest 452 520 38,000  Level Washington Center
10:17PM 35.1789 -77.7544 220° Southwest 452 520 38,000  Level Washington Center
10:18PM 35.0831 -77.8536 220° Southwest 452 520 38,000  Level Washington Center
10:19PM 34.9894 -77.9497 220° Southwest 452 520 38,000  Level Washington Center
10:20PM 34.8936 -78.0483 220° Southwest 452 520 38,000 -60 Level Washington Center
10:21PM 34.7911 -78.1614 222° Southwest 452 520 37,900  Descending Washington Center
10:23PM 34.5636 -78.3947 220° Southwest 465 535 38,000  Climbing Jacksonville Center
10:24PM 34.4689 -78.4931 221° Southwest 465 535 38,000  Level Jacksonville Center
10:25PM 34.3700 -78.5886 219° Southwest 460 529 38,000 -60 Level Jacksonville Center
10:26PM 34.2733 -78.6861 220° Southwest 460 529 37,900 -60 Descending Jacksonville Center
10:27PM 34.1783 -78.7811 220° Southwest 460 529 37,900  Level Jacksonville Center
10:28PM 34.0792 -78.8786 219° Southwest 460 529 37,900  Level Jacksonville Center
10:29PM 33.9822 -78.9733 219° Southwest 460 529 38,000  Climbing Jacksonville Center
10:30PM 33.8850 -79.0700 220° Southwest 460 529 38,000  Level Jacksonville Center
10:31PM 33.7878 -79.1669 220° Southwest 455 524 38,000 -60 Level Jacksonville Center
10:32PM 33.6922 -79.2581 218° Southwest 455 524 37,900 -60 Descending Jacksonville Center
10:33PM 33.5969 -79.3544 220° Southwest 449 517 37,900  Level Jacksonville Center
10:34PM 33.4994 -79.4481 219° Southwest 449 517 37,900  Level Jacksonville Center
10:35PM 33.4058 -79.5411 220° Southwest 449 517 37,900  Level Jacksonville Center
10:36PM 33.3103 -79.6342 219° Southwest 449 517 38,000  Climbing Jacksonville Center
10:37PM 33.2125 -79.7272 219° Southwest 449 517 37,900 -60 Descending Jacksonville Center
10:38PM 33.1167 -79.8197 219° Southwest 454 522 37,900  Level Jacksonville Center
10:39PM 33.0186 -79.9122 218° Southwest 454 522 38,000  Climbing Jacksonville Center
10:40PM 32.9228 -80.0072 220° Southwest 454 522 38,000 -60 Level Jacksonville Center
10:41PM 32.8203 -80.0919 215° Southwest 459 528 37,900  Descending Jacksonville Center
10:42PM 32.7133 -80.1694 211° Southwest 454 522 38,000  Climbing Jacksonville Center
10:43PM 32.6086 -80.2464 212° Southwest 449 517 38,000  Level Jacksonville Center
10:44PM 32.5039 -80.3258 213° Southwest 449 517 38,000  Level Jacksonville Center
10:45PM 32.4008 -80.4025 212° Southwest 449 517 38,000  Level Jacksonville Center
10:46PM 32.2808 -80.4475 198° South 440 506 38,000 -60 Level Jacksonville Center
10:47PM 32.1622 -80.4778 192° South 445 512 37,900  Descending Jacksonville Center
10:48PM 32.0439 -80.5028 190° South 432 497 38,000  Climbing Jacksonville Center
10:49PM 31.9086 -80.5333 191° South 446 513 38,000  Level Jacksonville Center
10:50PM 31.7858 -80.5561 189° South 456 525 38,000  Level Jacksonville Center
10:51PM 31.6736 -80.5808 191° South 451 519 38,000  Level Jacksonville Center
10:52PM 31.5322 -80.6086 190° South 466 536 38,000  Level Jacksonville Center
10:53PM 31.4094 -80.6336 190° South 453 521 38,000  Level Jacksonville Center
10:54PM 31.2844 -80.6561 189° South 461 531 38,000  Level Jacksonville Center
10:55PM 31.1617 -80.6808 190° South 461 531 38,000 -60 Level Jacksonville Center
10:56PM 31.0347 -80.7056 189° South 466 536 37,900  Descending Jacksonville Center
10:57PM 30.9058 -80.7281 189° South 466 536 38,000  Climbing Jacksonville Center
10:58PM 30.7767 -80.7528 189° South 466 536 37,900  Descending Jacksonville Center
10:59PM 30.6542 -80.7797 191° South 466 536 38,000  Climbing Jacksonville Center
11:00PM 30.5417 -80.7989 188° South 466 536 38,000 -60 Level Jacksonville Center
11:01PM 30.4125 -80.8258 190° South 466 536 37,900 -900 Descending Jacksonville Center
11:02PM 30.2836 -80.8503 189° South 466 536 36,200 -2,820 Descending Jacksonville Center
11:03PM 30.1503 -80.8747 189° South 478 550 32,300 -3,360 Descending Jacksonville Center
11:04PM 30.0172 -80.9017 190° South 488 562 29,500 -2,700 Descending Jacksonville Center
11:05PM 29.8861 -80.9283 190° South 488 562 27,000 -2,460 Descending Jacksonville Center
11:06PM 29.7592 -80.9522 189° South 477 549 24,600 -2,400 Descending Jacksonville Center
11:07PM 29.6364 -80.9764 190° South 463 533 22,300 -2,220 Descending Jacksonville Center
11:08PM 29.5239 -80.9975 189° South 439 505 20,200 -2,220 Descending Jacksonville Center
11:09PM 29.4011 -81.0189 189° South 413 475 17,900 -2,160 Descending Jacksonville Center
11:10PM 29.2947 -81.0378 189° South 398 458 15,900 -1,920 Descending Jacksonville Center
11:11PM 29.1928 -81.0611 191° South 382 440 14,100 -1,560 Descending Jacksonville Center
11:12PM 29.0950 -81.0747 187° South 358 412 12,800 -1,140 Descending Jacksonville Center
11:13PM 29.0075 -81.0906 189° South 323 372 11,900 -900 Descending Jacksonville Center
11:14PM 28.9219 -81.0803 174° South 313 360 11,100 -1,140 Descending Jacksonville Center
11:15PM 28.8500 -81.0667 171° South 306 352 9,800 -1,620 Descending Orlando TRACON
11:16PM 28.7833 -81.0667 180° South 295 339 8,300 -1,680 Descending Orlando TRACON
11:17PM 28.7333 -81.1333 229° Southwest 300 345 6,700 -1,560 Descending Orlando TRACON
11:17PM 28.7286 -81.1547 256° West 258 297 6,400 -660 Descending Jacksonville Center
11:18PM 28.6964 -81.2333 245° Southwest 269 310 5,900 -1,020 Descending Jacksonville Center
11:20PM 28.6000 -81.3000 211° Southwest 228 262 3,800 -1,260 Descending Orlando TRACON
11:21PM 28.5500 -81.3167 196° South 168 193 2,500 -1,260 Descending Orlando TRACON
11:22PM 28.5000 -81.3167 180° South 139 160 1,200 -1,020 Descending Orlando TRACON
11:23PM 28.4667 -81.3167 180° South 131 151 500 -720 Descending Orlando TRACON